Time;durP1;ratioP1;P1;durP2;ratioP2;P2;SDS_P1;SDS_P2;PMS_P1;PMS_P2;Temp;Humidity;BMP_temperature;BMP_pressure;BME280_temperature;BME280_humidity;BME280_pressure;Samples;Min_cycle;Max_cycle;Signal;HPM_P1;HPM_P2
2023/12/08 00:03:21;;;;;;;51.90;16.17;;;;;-0.20;95964.00;;;;8334033;28;20229;-72
2023/12/08 00:07:25;;;;;;;50.50;16.07;;;;;-0.20;95966.00;;;;8332795;28;20243;-72
2023/12/08 00:11:28;;;;;;;35.97;12.63;;;;;-0.20;95950.00;;;;8333484;28;20244;-72
2023/12/08 00:15:31;;;;;;;47.17;15.50;;;;;-0.30;95953.00;;;;8333311;28;20225;-72
2023/12/08 00:19:36;;;;;;;46.20;15.50;;;;;-0.30;95962.00;;;;8333324;28;20721;-72
2023/12/08 00:23:39;;;;;;;44.30;14.87;;;;;-0.30;95953.00;;;;8332936;28;20201;-72
2023/12/08 00:27:42;;;;;;;42.07;14.60;;;;;-0.40;95953.00;;;;8332707;28;20255;-72
2023/12/08 00:31:45;;;;;;;37.00;14.57;;;;;-0.40;95952.00;;;;8333054;28;20625;-72
2023/12/08 00:35:50;;;;;;;43.43;14.63;;;;;-0.40;95937.00;;;;8332816;28;20272;-72
2023/12/08 00:39:53;;;;;;;39.20;13.00;;;;;-0.50;95937.00;;;;8333153;28;20256;-72
2023/12/08 00:43:56;;;;;;;35.27;14.47;;;;;-0.50;95931.00;;;;8332264;28;20233;-72
2023/12/08 00:47:59;;;;;;;38.67;14.70;;;;;-0.50;95927.00;;;;8332318;28;20673;-72
2023/12/08 00:52:05;;;;;;;41.07;13.93;;;;;-0.60;95935.00;;;;8333287;28;20194;-71
2023/12/08 00:56:09;;;;;;;38.20;13.70;;;;;-0.50;95931.00;;;;8332914;28;20571;-71
2023/12/08 01:00:13;;;;;;;36.27;13.87;;;;;-0.60;95912.00;;;;8331378;28;20221;-71
2023/12/08 01:04:16;;;;;;;39.40;12.63;;;;;-0.70;95907.00;;;;8332573;28;20234;-71
2023/12/08 01:08:20;;;;;;;40.97;13.87;;;;;-0.80;95898.00;;;;8332249;28;20192;-71
2023/12/08 01:12:24;;;;;;;20.57;8.13;;;;;-0.80;95896.00;;;;8331773;28;20219;-71
2023/12/08 01:16:27;;;;;;;33.30;13.07;;;;;-0.90;95891.00;;;;8331759;28;20227;-70
2023/12/08 01:20:30;;;;;;;36.73;12.87;;;;;-1.00;95887.00;;;;8332236;28;20229;-70
2023/12/08 01:24:34;;;;;;;34.40;13.53;;;;;-1.00;95904.00;;;;8330887;28;20201;-70
2023/12/08 01:28:41;;;;;;;35.87;14.43;;;;;-0.90;95909.00;;;;8329972;28;20225;-71
2023/12/08 01:32:44;;;;;;;31.23;12.53;;;;;-0.80;95882.00;;;;8331133;28;20191;-70
2023/12/08 01:36:48;;;;;;;33.97;12.37;;;;;-0.80;95858.00;;;;8331802;28;20197;-70
2023/12/08 01:40:52;;;;;;;30.20;11.67;;;;;-0.90;95864.00;;;;8331696;28;20225;-70
2023/12/08 01:44:55;;;;;;;35.37;13.37;;;;;-0.90;95859.00;;;;8332040;28;20280;-70
2023/12/08 01:48:59;;;;;;;25.60;11.53;;;;;-0.90;95851.00;;;;8329784;28;20205;-70
2023/12/08 01:53:03;;;;;;;27.40;12.67;;;;;-0.90;95842.00;;;;8331854;28;20208;-70
2023/12/08 01:57:08;;;;;;;28.07;12.60;;;;;-0.90;95845.00;;;;8331299;28;20201;-70
2023/12/08 02:01:11;;;;;;;31.53;12.70;;;;;-0.90;95844.00;;;;8332046;28;20227;-70
2023/12/08 02:05:17;;;;;;;27.07;12.03;;;;;-0.90;95831.00;;;;8330805;28;20297;-70
2023/12/08 02:09:21;;;;;;;27.00;11.27;;;;;-0.90;95817.00;;;;8331363;28;20197;-70
2023/12/08 02:13:26;;;;;;;27.87;12.80;;;;;-0.90;95812.00;;;;8330701;28;20195;-70
2023/12/08 02:17:34;;;;;;;30.63;13.17;;;;;-1.00;95826.00;;;;8331282;28;20194;-70
2023/12/08 02:21:40;;;;;;;33.93;13.43;;;;;-1.00;95835.00;;;;8330697;28;20678;-70
2023/12/08 02:25:45;;;;;;;35.60;14.10;;;;;-0.90;95846.00;;;;8330781;28;20233;-70
2023/12/08 02:29:48;;;;;;;38.03;13.63;;;;;-0.90;95845.00;;;;8330293;28;20197;-70
2023/12/08 02:33:54;;;;;;;33.63;13.03;;;;;-0.90;95840.00;;;;8330770;28;20641;-69
2023/12/08 02:38:01;;;;;;;44.93;14.90;;;;;-0.90;95844.00;;;;8335596;28;20305;-69
2023/12/08 02:42:06;;;;;;;37.23;13.20;;;;;-0.90;95835.00;;;;8336371;28;20198;-69
2023/12/08 02:46:09;;;;;;;36.50;14.13;;;;;-0.80;95827.00;;;;8336017;28;20186;-69
2023/12/08 02:50:12;;;;;;;41.77;15.70;;;;;-0.80;95826.00;;;;8336336;28;20328;-69
2023/12/08 02:54:16;;;;;;;37.83;14.37;;;;;-0.80;95831.00;;;;8337810;28;20617;-69
2023/12/08 02:58:20;;;;;;;40.93;15.00;;;;;-0.90;95823.00;;;;8335436;28;20194;-69
2023/12/08 03:02:23;;;;;;;40.90;15.13;;;;;-0.80;95825.00;;;;8372641;23;20239;-71
2023/12/08 03:06:26;;;;;;;38.27;14.50;;;;;-0.90;95815.00;;;;8333541;28;20247;-70
2023/12/08 03:10:30;;;;;;;41.80;15.43;;;;;-0.80;95821.00;;;;8333049;28;20736;-70
2023/12/08 03:14:34;;;;;;;35.03;13.47;;;;;-0.80;95805.00;;;;8335907;28;20714;-70
2023/12/08 03:18:37;;;;;;;32.67;13.30;;;;;-0.90;95812.00;;;;8333102;28;20220;-70
2023/12/08 03:22:41;;;;;;;34.00;14.10;;;;;-1.00;95792.00;;;;8331409;28;20206;-71
2023/12/08 03:26:44;;;;;;;36.50;14.90;;;;;-1.00;95781.00;;;;8334034;28;20202;-70
2023/12/08 03:30:49;;;;;;;34.47;13.53;;;;;-1.00;95776.00;;;;8328957;28;20195;-70
2023/12/08 03:34:52;;;;;;;39.53;15.20;;;;;-1.00;95777.00;;;;8342383;28;20193;-70
2023/12/08 03:38:55;;;;;;;37.00;13.77;;;;;-1.10;95757.00;;;;8330929;28;20230;-70
2023/12/08 03:42:58;;;;;;;40.63;14.63;;;;;-1.10;95741.00;;;;8335670;28;20206;-70
2023/12/08 03:47:03;;;;;;;33.93;13.50;;;;;-1.10;95739.00;;;;8337630;28;20204;-70
2023/12/08 03:51:06;;;;;;;38.37;14.87;;;;;-1.20;95746.00;;;;8333873;28;20198;-71
2023/12/08 03:55:10;;;;;;;34.67;12.20;;;;;-1.10;95757.00;;;;8343053;28;20236;-71
2023/12/08 03:59:13;;;;;;;32.23;11.90;;;;;-1.10;95752.00;;;;8343174;28;20227;-70
2023/12/08 04:03:17;;;;;;;30.50;12.30;;;;;-1.10;95749.00;;;;8336845;28;20899;-71
2023/12/08 04:07:20;;;;;;;30.63;12.33;;;;;-1.10;95757.00;;;;8347367;28;20224;-71
2023/12/08 04:11:23;;;;;;;32.87;13.20;;;;;-1.00;95748.00;;;;8344047;28;20209;-69
2023/12/08 04:15:26;;;;;;;32.93;12.53;;;;;-1.00;95758.00;;;;8348848;28;20633;-70
2023/12/08 04:19:31;;;;;;;26.83;11.30;;;;;-1.00;95761.00;;;;8346948;28;20251;-71
2023/12/08 04:23:35;;;;;;;35.67;12.97;;;;;-0.90;95771.00;;;;8347706;28;20233;-70
2023/12/08 04:27:38;;;;;;;28.97;12.03;;;;;-0.80;95781.00;;;;8347252;28;20201;-71
2023/12/08 04:31:41;;;;;;;31.43;13.07;;;;;-0.80;95786.00;;;;8343330;28;20202;-70
2023/12/08 04:35:46;;;;;;;29.07;12.00;;;;;-0.60;95796.00;;;;8354931;28;20304;-70
2023/12/08 04:39:49;;;;;;;33.17;13.37;;;;;-0.50;95788.00;;;;8358004;28;20729;-70
2023/12/08 04:43:52;;;;;;;32.57;13.13;;;;;-0.50;95775.00;;;;8357021;28;20208;-72
2023/12/08 04:47:55;;;;;;;32.43;13.33;;;;;-0.50;95758.00;;;;8353762;28;20292;-71
2023/12/08 04:52:00;;;;;;;30.17;14.30;;;;;-0.50;95748.00;;;;8343079;28;20962;-70
2023/12/08 04:56:04;;;;;;;33.77;14.33;;;;;-0.60;95752.00;;;;8356547;28;20812;-70
2023/12/08 05:00:08;;;;;;;31.43;13.83;;;;;-0.60;95738.00;;;;8340374;28;20231;-70
2023/12/08 05:04:11;;;;;;;33.03;13.17;;;;;-0.70;95721.00;;;;8338877;28;20225;-71
2023/12/08 05:08:15;;;;;;;34.47;13.43;;;;;-0.70;95705.00;;;;8339460;28;20196;-70
2023/12/08 05:12:19;;;;;;;27.57;12.43;;;;;-0.70;95691.00;;;;8337138;28;20284;-71
2023/12/08 05:16:22;;;;;;;29.93;12.93;;;;;-0.70;95688.00;;;;8342355;28;20642;-70
2023/12/08 05:20:25;;;;;;;23.60;11.30;;;;;-0.60;95694.00;;;;8341242;28;20311;-70
2023/12/08 05:24:29;;;;;;;20.27;10.47;;;;;-0.60;95680.00;;;;8335926;28;20288;-69
2023/12/08 05:28:32;;;;;;;26.77;10.80;;;;;-0.50;95678.00;;;;8331309;28;20218;-69
2023/12/08 05:32:35;;;;;;;28.17;12.17;;;;;-0.50;95686.00;;;;8332737;28;20203;-70
2023/12/08 05:36:40;;;;;;;25.00;12.00;;;;;-0.40;95682.00;;;;8332740;28;20894;-72
2023/12/08 05:40:45;;;;;;;17.57;8.37;;;;;-0.30;95673.00;;;;8338278;28;20302;-69
2023/12/08 05:44:48;;;;;;;22.03;11.27;;;;;-0.30;95663.00;;;;8324826;28;20201;-72
2023/12/08 05:48:51;;;;;;;22.37;10.57;;;;;-0.30;95684.00;;;;8337019;28;20576;-69
2023/12/08 05:52:55;;;;;;;25.60;10.77;;;;;-0.20;95733.00;;;;8340264;28;20227;-70
2023/12/08 05:56:59;;;;;;;23.43;10.37;;;;;-0.10;95744.00;;;;8342020;28;20985;-68
2023/12/08 06:01:03;;;;;;;24.93;11.07;;;;;-0.10;95742.00;;;;8342436;28;20230;-68
2023/12/08 06:05:07;;;;;;;28.10;11.83;;;;;0.00;95758.00;;;;8334522;28;20267;-68
2023/12/08 06:09:12;;;;;;;26.47;12.10;;;;;0.10;95754.00;;;;8336011;28;20202;-69
2023/12/08 06:13:17;;;;;;;34.00;14.33;;;;;0.10;95767.00;;;;8356685;28;20231;-70
2023/12/08 06:17:20;;;;;;;66.30;27.10;;;;;0.20;95772.00;;;;8350173;28;20284;-69
2023/12/08 06:21:23;;;;;;;94.63;27.97;;;;;0.20;95789.00;;;;8356369;28;20229;-70
2023/12/08 06:25:27;;;;;;;39.10;15.97;;;;;0.30;95790.00;;;;8345534;28;20295;-71
2023/12/08 06:29:32;;;;;;;56.27;23.97;;;;;0.30;95783.00;;;;8352542;28;20613;-71
2023/12/08 06:33:36;;;;;;;34.40;14.67;;;;;0.40;95793.00;;;;8337583;28;20339;-73
2023/12/08 06:37:40;;;;;;;32.03;13.07;;;;;0.40;95772.00;;;;8338486;28;20233;-73
2023/12/08 06:41:43;;;;;;;27.47;12.13;;;;;0.40;95763.00;;;;8350382;28;20581;-72
2023/12/08 06:45:48;;;;;;;46.30;16.07;;;;;0.50;95759.00;;;;8350516;28;20293;-72
2023/12/08 06:49:51;;;;;;;596.53;193.57;;;;;0.50;95762.00;;;;8345670;28;20311;-73
2023/12/08 06:53:55;;;;;;;129.73;51.53;;;;;0.50;95754.00;;;;8341508;28;20208;-73
2023/12/08 06:57:58;;;;;;;767.90;329.73;;;;;0.50;95761.00;;;;8348949;28;20202;-72
2023/12/08 07:02:03;;;;;;;100.03;58.27;;;;;0.50;95761.00;;;;8337334;28;20234;-72
2023/12/08 07:06:07;;;;;;;35.27;17.83;;;;;0.50;95754.00;;;;8345240;28;20622;-72
2023/12/08 07:10:10;;;;;;;27.63;14.30;;;;;0.40;95751.00;;;;8348541;28;20814;-71
2023/12/08 07:14:13;;;;;;;30.93;15.07;;;;;0.40;95752.00;;;;8348310;28;20204;-73
2023/12/08 07:18:18;;;;;;;31.80;17.60;;;;;0.40;95752.00;;;;8348334;28;20220;-72
2023/12/08 07:22:22;;;;;;;36.23;18.20;;;;;0.40;95763.00;;;;8344479;28;20334;-73
2023/12/08 07:26:26;;;;;;;41.00;24.67;;;;;0.40;95774.00;;;;8349469;28;20293;-73
2023/12/08 07:30:30;;;;;;;25.87;13.20;;;;;0.50;95779.00;;;;8341004;28;20291;-73
2023/12/08 07:34:35;;;;;;;119.00;67.60;;;;;0.60;95776.00;;;;8343850;28;20264;-73
2023/12/08 07:38:39;;;;;;;25.07;13.07;;;;;0.60;95795.00;;;;8350151;28;20278;-73
2023/12/08 07:42:43;;;;;;;28.97;13.17;;;;;0.70;95800.00;;;;8344373;28;20275;-73
2023/12/08 07:46:47;;;;;;;23.87;12.57;;;;;0.70;95800.00;;;;8345736;28;20213;-73
2023/12/08 07:50:52;;;;;;;26.40;12.43;;;;;0.80;95787.00;;;;8349313;28;20237;-73
2023/12/08 07:54:55;;;;;;;30.97;15.00;;;;;0.80;95793.00;;;;8345369;28;20204;-73
2023/12/08 07:58:58;;;;;;;28.77;14.73;;;;;0.80;95786.00;;;;8344255;28;20230;-72
2023/12/08 08:03:02;;;;;;;31.97;14.53;;;;;0.90;95785.00;;;;8339678;28;21147;-76
2023/12/08 08:07:07;;;;;;;25.63;13.07;;;;;0.90;95776.00;;;;8350527;28;20207;-76
2023/12/08 08:11:10;;;;;;;27.07;14.33;;;;;1.00;95786.00;;;;8348090;28;20202;-74
2023/12/08 08:15:13;;;;;;;30.13;13.67;;;;;1.00;95789.00;;;;8349326;28;20303;-77
2023/12/08 08:19:16;;;;;;;38.37;18.47;;;;;1.20;95793.00;;;;8347001;28;20688;-76
2023/12/08 08:23:21;;;;;;;33.90;19.47;;;;;1.30;95798.00;;;;8344052;28;21010;-71
2023/12/08 08:27:25;;;;;;;27.67;15.27;;;;;1.40;95798.00;;;;8347418;28;20193;-74
2023/12/08 08:31:28;;;;;;;27.80;12.80;;;;;1.40;95795.00;;;;8353043;28;20295;-74
2023/12/08 08:35:32;;;;;;;23.63;11.70;;;;;1.40;95790.00;;;;8349755;28;20610;-73
2023/12/08 08:39:37;;;;;;;25.07;12.07;;;;;1.40;95780.00;;;;8342876;28;20632;-74
2023/12/08 08:43:40;;;;;;;24.13;12.83;;;;;1.40;95768.00;;;;8349423;28;20320;-74
2023/12/08 08:47:43;;;;;;;30.27;12.97;;;;;1.50;95770.00;;;;8346086;28;20198;-71
2023/12/08 08:51:47;;;;;;;25.87;12.50;;;;;1.50;95770.00;;;;8345035;28;20198;-72
2023/12/08 08:55:51;;;;;;;22.97;11.63;;;;;1.60;95764.00;;;;8343379;28;20288;-75
2023/12/08 08:59:54;;;;;;;26.63;12.93;;;;;1.60;95773.00;;;;8340969;28;20938;-83
2023/12/08 09:03:59;;;;;;;26.63;13.40;;;;;1.60;95761.00;;;;8340794;28;20233;-78
2023/12/08 09:08:02;;;;;;;27.17;12.63;;;;;1.70;95778.00;;;;8344250;28;20266;-86
2023/12/08 09:12:08;;;;;;;24.67;11.50;;;;;1.80;95790.00;;;;8344949;28;20205;-85
2023/12/08 09:16:12;;;;;;;24.40;12.10;;;;;1.90;95787.00;;;;8346674;28;20280;-80
2023/12/08 09:20:15;;;;;;;22.73;11.60;;;;;2.00;95792.00;;;;8343566;28;20282;-73
2023/12/08 09:24:19;;;;;;;23.50;11.27;;;;;2.10;95803.00;;;;8345294;28;20222;-79
2023/12/08 09:28:24;;;;;;;24.67;12.27;;;;;2.10;95809.00;;;;8353399;28;20707;-77
2023/12/08 09:32:28;;;;;;;24.20;12.13;;;;;2.30;95800.00;;;;8343075;28;20304;-75
2023/12/08 09:36:33;;;;;;;21.80;11.83;;;;;2.40;95810.00;;;;8342242;28;20212;-75
2023/12/08 09:40:38;;;;;;;19.30;11.30;;;;;2.60;95823.00;;;;8336384;28;20196;-74
2023/12/08 09:44:42;;;;;;;23.80;11.60;;;;;2.70;95802.00;;;;8358507;28;20194;-75
2023/12/08 09:48:47;;;;;;;22.73;12.30;;;;;2.80;95789.00;;;;8370375;28;20197;-74
2023/12/08 09:52:53;;;;;;;22.07;11.70;;;;;2.80;95795.00;;;;8370309;28;20202;-74
2023/12/08 09:56:58;;;;;;;25.37;12.00;;;;;2.80;95818.00;;;;8370559;28;20226;-75
2023/12/08 10:01:04;;;;;;;20.47;10.50;;;;;2.80;95785.00;;;;8371010;28;20579;-74
2023/12/08 10:05:08;;;;;;;21.10;11.00;;;;;2.80;95787.00;;;;8371400;28;20703;-75
2023/12/08 10:09:13;;;;;;;22.13;11.13;;;;;2.80;95777.00;;;;8370062;28;20192;-74
2023/12/08 10:13:16;;;;;;;24.60;11.83;;;;;2.80;95775.00;;;;8369729;28;20186;-75
2023/12/08 10:17:21;;;;;;;21.10;11.40;;;;;2.90;95773.00;;;;8369208;28;20250;-74
2023/12/08 10:21:24;;;;;;;19.67;10.97;;;;;2.90;95767.00;;;;8368625;28;20227;-74
2023/12/08 10:25:36;;;;;;;31.00;14.50;;;;;2.90;95759.00;;;;8368533;28;20199;-74
2023/12/08 10:29:45;;;;;;;22.13;12.27;;;;;2.80;95759.00;;;;8370247;28;20517;-74
2023/12/08 10:33:50;;;;;;;27.40;13.07;;;;;2.90;95755.00;;;;8368238;28;20195;-74
2023/12/08 10:37:53;;;;;;;25.43;12.07;;;;;3.00;95764.00;;;;8369522;28;20575;-74
2023/12/08 10:41:59;;;;;;;27.77;13.73;;;;;3.00;95767.00;;;;8368898;28;20229;-75
2023/12/08 10:46:03;;;;;;;21.57;11.10;;;;;3.10;95779.00;;;;8368480;28;20187;-76
2023/12/08 10:50:09;;;;;;;24.37;11.80;;;;;3.10;95773.00;;;;8368432;28;20582;-76
2023/12/08 10:54:17;;;;;;;22.53;11.80;;;;;3.10;95772.00;;;;8369165;28;20188;-77
2023/12/08 10:58:22;;;;;;;23.90;12.60;;;;;3.00;95769.00;;;;8368124;28;20696;-77
2023/12/08 11:02:31;;;;;;;24.47;12.57;;;;;2.90;95752.00;;;;8366381;28;20232;-76
2023/12/08 11:06:42;;;;;;;27.73;12.13;;;;;2.90;95754.00;;;;8368859;28;20242;-76
2023/12/08 11:10:51;;;;;;;24.97;12.43;;;;;2.90;95739.00;;;;8368012;28;20604;-77
2023/12/08 11:15:03;;;;;;;25.60;12.37;;;;;2.90;95738.00;;;;8367668;28;20210;-76
2023/12/08 11:19:07;;;;;;;26.80;13.10;;;;;2.90;95737.00;;;;8367723;28;20289;-75
2023/12/08 11:23:12;;;;;;;26.03;11.90;;;;;2.90;95736.00;;;;8367831;28;20645;-78
2023/12/08 11:27:22;;;;;;;25.20;12.40;;;;;2.90;95730.00;;;;8367613;28;20240;-76
2023/12/08 11:31:35;;;;;;;21.87;11.20;;;;;3.00;95731.00;;;;8366716;28;20184;-76
2023/12/08 11:35:38;;;;;;;22.73;11.40;;;;;3.00;95731.00;;;;8365665;28;20185;-73
2023/12/08 11:39:45;;;;;;;27.83;11.57;;;;;3.00;95727.00;;;;8363773;28;20192;-72
2023/12/08 11:43:48;;;;;;;20.40;11.53;;;;;3.00;95753.00;;;;8366948;28;20208;-74
2023/12/08 11:47:51;;;;;;;23.40;11.03;;;;;3.10;95758.00;;;;8366631;28;20554;-72
2023/12/08 11:52:16;;;;;;;18.97;11.03;;;;;3.00;95760.00;;;;8364606;28;20200;-72
2023/12/08 11:56:42;;;;;;;23.93;11.63;;;;;3.00;95768.00;;;;8364417;28;20184;-73
2023/12/08 12:00:48;;;;;;;23.23;11.37;;;;;3.00;95761.00;;;;8365581;28;20289;-72
2023/12/08 12:04:51;;;;;;;24.10;12.23;;;;;2.90;95760.00;;;;8366818;28;20258;-72
2023/12/08 12:08:55;;;;;;;23.43;11.57;;;;;2.80;95763.00;;;;8365213;28;20203;-73
2023/12/08 12:13:04;;;;;;;24.63;12.53;;;;;2.80;95755.00;;;;8366250;28;20195;-72
2023/12/08 12:17:08;;;;;;;23.60;11.73;;;;;2.80;95755.00;;;;8366573;28;20523;-72
2023/12/08 12:21:11;;;;;;;27.93;13.47;;;;;2.80;95747.00;;;;8366360;28;20614;-73
2023/12/08 12:25:15;;;;;;;25.37;13.07;;;;;2.90;95747.00;;;;8364671;28;20299;-72
2023/12/08 12:29:20;;;;;;;28.37;13.63;;;;;2.90;95743.00;;;;8365600;28;20204;-73
2023/12/08 12:33:23;;;;;;;22.10;12.83;;;;;2.90;95752.00;;;;8365770;28;20252;-72
2023/12/08 12:37:26;;;;;;;25.77;12.70;;;;;2.80;95747.00;;;;8366071;28;20641;-77
2023/12/08 12:41:30;;;;;;;27.50;14.40;;;;;2.80;95755.00;;;;8365688;28;20235;-76
2023/12/08 12:45:35;;;;;;;25.47;13.57;;;;;2.70;95748.00;;;;8365337;28;20250;-75
2023/12/08 12:49:43;;;;;;;26.57;13.47;;;;;2.80;95742.00;;;;8365370;28;20192;-75
2023/12/08 12:53:47;;;;;;;25.87;12.80;;;;;2.80;95745.00;;;;8364434;28;20188;-73
2023/12/08 12:57:51;;;;;;;26.53;13.23;;;;;2.80;95741.00;;;;8365828;28;20290;-72
2023/12/08 13:01:57;;;;;;;29.27;14.50;;;;;2.80;95736.00;;;;8363914;28;20252;-71
2023/12/08 13:06:00;;;;;;;25.10;13.20;;;;;2.70;95732.00;;;;8365595;28;20195;-71
2023/12/08 13:10:05;;;;;;;30.17;13.97;;;;;2.80;95725.00;;;;8364701;28;20282;-71
2023/12/08 13:14:08;;;;;;;26.50;13.03;;;;;2.80;95731.00;;;;8364589;28;20241;-69
2023/12/08 13:18:13;;;;;;;27.20;13.80;;;;;2.80;95732.00;;;;8362164;28;20632;-72
2023/12/08 13:22:17;;;;;;;23.17;13.07;;;;;2.80;95735.00;;;;8363683;28;20204;-71
2023/12/08 13:26:20;;;;;;;26.67;12.80;;;;;2.80;95722.00;;;;8363759;28;20195;-72
2023/12/08 13:30:23;;;;;;;25.47;13.67;;;;;2.80;95729.00;;;;8361952;28;20641;-72
2023/12/08 13:34:28;;;;;;;29.60;13.00;;;;;2.70;95723.00;;;;8362892;28;20196;-72
2023/12/08 13:38:31;;;;;;;29.30;14.03;;;;;2.70;95732.00;;;;8362125;28;20328;-72
2023/12/08 13:42:34;;;;;;;29.17;14.80;;;;;2.70;95721.00;;;;8361667;28;20238;-73
2023/12/08 13:46:39;;;;;;;29.30;14.40;;;;;2.70;95730.00;;;;8363179;28;20626;-74
2023/12/08 13:50:44;;;;;;;25.20;13.63;;;;;2.70;95737.00;;;;8363621;28;20203;-72
2023/12/08 13:55:04;;;;;;;32.57;14.70;;;;;2.60;95742.00;;;;8348000;28;20301;-72
2023/12/08 13:59:07;;;;;;;38.30;16.40;;;;;2.60;95745.00;;;;8362805;28;20642;-72
2023/12/08 14:03:10;;;;;;;32.27;16.17;;;;;2.60;95751.00;;;;8363546;28;20286;-72
2023/12/08 14:07:15;;;;;;;32.20;15.57;;;;;2.60;95742.00;;;;8363100;28;20230;-72
2023/12/08 14:11:19;;;;;;;33.60;16.37;;;;;2.50;95748.00;;;;8363314;28;20188;-72
2023/12/08 14:15:22;;;;;;;34.60;15.67;;;;;2.50;95740.00;;;;8362925;28;20196;-73
2023/12/08 14:19:25;;;;;;;31.30;15.70;;;;;2.40;95750.00;;;;8363314;28;20203;-73
2023/12/08 14:23:30;;;;;;;34.67;16.50;;;;;2.40;95752.00;;;;8363129;28;20220;-72
2023/12/08 14:27:33;;;;;;;32.50;15.90;;;;;2.40;95760.00;;;;8364252;28;20206;-73
2023/12/08 14:31:41;;;;;;;28.67;14.77;;;;;2.40;95767.00;;;;8367044;28;20201;-73
2023/12/08 14:35:44;;;;;;;34.37;16.60;;;;;2.30;95762.00;;;;8369372;28;20223;-73
2023/12/08 14:39:48;;;;;;;35.60;16.57;;;;;2.30;95761.00;;;;8369289;28;20197;-72
2023/12/08 14:43:53;;;;;;;30.77;15.23;;;;;2.30;95766.00;;;;8368161;28;20366;-72
2023/12/08 14:47:56;;;;;;;35.73;15.93;;;;;2.20;95770.00;;;;8366350;28;20201;-72
2023/12/08 14:52:00;;;;;;;34.27;16.30;;;;;2.20;95766.00;;;;8367605;28;20287;-71
2023/12/08 14:56:05;;;;;;;38.37;16.47;;;;;2.20;95779.00;;;;8368581;28;20200;-72
2023/12/08 15:00:09;;;;;;;33.87;15.87;;;;;2.20;95784.00;;;;8368925;28;20506;-72
2023/12/08 15:04:13;;;;;;;41.60;18.47;;;;;2.10;95779.00;;;;8367549;28;20227;-71
2023/12/08 15:08:16;;;;;;;32.00;16.23;;;;;2.10;95787.00;;;;8368687;28;20198;-71
2023/12/08 15:12:27;;;;;;;36.80;16.30;;;;;2.10;95791.00;;;;8365070;28;20250;-71
2023/12/08 15:16:30;;;;;;;39.00;16.93;;;;;2.10;95786.00;;;;8368209;28;20183;-70
2023/12/08 15:20:35;;;;;;;37.70;17.10;;;;;2.10;95773.00;;;;8367496;28;20609;-71
2023/12/08 15:24:38;;;;;;;38.13;18.50;;;;;2.00;95782.00;;;;8368493;28;20232;-70
2023/12/08 15:28:43;;;;;;;37.93;17.43;;;;;2.00;95786.00;;;;8366793;28;20195;-71
2023/12/08 15:32:46;;;;;;;33.60;16.70;;;;;2.00;95787.00;;;;8366828;28;20215;-71
2023/12/08 15:36:50;;;;;;;40.23;20.93;;;;;2.00;95788.00;;;;8367074;28;20195;-71
2023/12/08 15:40:53;;;;;;;419.70;217.87;;;;;2.00;95784.00;;;;8367814;28;20279;-71
2023/12/08 15:44:59;;;;;;;49.37;25.20;;;;;2.00;95787.00;;;;8366809;28;20566;-69
2023/12/08 15:49:07;;;;;;;65.40;31.37;;;;;2.00;95794.00;;;;8366278;28;20394;-70
2023/12/08 15:53:11;;;;;;;56.53;27.83;;;;;2.10;95795.00;;;;8366752;28;20199;-70
2023/12/08 15:57:14;;;;;;;50.37;26.07;;;;;2.00;95796.00;;;;8367220;28;20192;-69
2023/12/08 16:01:20;;;;;;;42.13;18.87;;;;;2.10;95802.00;;;;8366235;28;20222;-69
2023/12/08 16:05:23;;;;;;;48.10;20.80;;;;;2.10;95816.00;;;;8367575;28;20232;-69
2023/12/08 16:09:26;;;;;;;48.97;19.13;;;;;2.10;95818.00;;;;8363915;28;20292;-69
2023/12/08 16:13:30;;;;;;;67.97;37.17;;;;;2.20;95827.00;;;;8365870;28;20251;-68
2023/12/08 16:17:35;;;;;;;50.70;21.40;;;;;2.20;95822.00;;;;8366770;28;20230;-69
2023/12/08 16:21:39;;;;;;;104.73;55.70;;;;;2.20;95843.00;;;;8366792;28;20190;-68
2023/12/08 16:25:42;;;;;;;95.33;46.63;;;;;2.20;95831.00;;;;8366566;28;20554;-68
2023/12/08 16:29:46;;;;;;;59.70;28.17;;;;;2.20;95839.00;;;;8366005;28;20205;-68
2023/12/08 16:33:52;;;;;;;68.33;33.07;;;;;2.20;95844.00;;;;8365812;28;20283;-68
2023/12/08 16:37:55;;;;;;;55.70;26.13;;;;;2.20;95849.00;;;;8367289;28;20212;-69
2023/12/08 16:41:58;;;;;;;67.33;37.00;;;;;2.20;95841.00;;;;8365605;28;20227;-69
2023/12/08 16:46:02;;;;;;;44.77;20.83;;;;;2.20;95851.00;;;;8365140;28;20315;-69
2023/12/08 16:50:08;;;;;;;51.73;23.37;;;;;2.20;95853.00;;;;8365619;28;20541;-69
2023/12/08 16:54:12;;;;;;;55.40;26.17;;;;;2.20;95862.00;;;;8364658;28;20289;-70
2023/12/08 16:58:15;;;;;;;57.30;25.00;;;;;2.20;95867.00;;;;8364868;28;20198;-69
2023/12/08 17:02:18;;;;;;;60.37;26.67;;;;;2.20;95877.00;;;;8364594;28;20207;-71
2023/12/08 17:06:23;;;;;;;69.13;36.90;;;;;2.20;95872.00;;;;8365178;28;20214;-70
2023/12/08 17:10:26;;;;;;;56.37;30.87;;;;;2.20;95881.00;;;;8365047;28;20245;-69
2023/12/08 17:14:29;;;;;;;46.03;19.80;;;;;2.20;95878.00;;;;8364316;28;20198;-67
2023/12/08 17:18:32;;;;;;;49.30;21.40;;;;;2.20;95882.00;;;;8363934;28;20199;-68
2023/12/08 17:22:37;;;;;;;47.10;20.27;;;;;2.20;95879.00;;;;8365321;28;20228;-67
2023/12/08 17:26:40;;;;;;;48.63;20.97;;;;;2.30;95883.00;;;;8364049;28;20219;-67
2023/12/08 17:30:45;;;;;;;57.93;23.87;;;;;2.30;95883.00;;;;8364046;28;20192;-67
2023/12/08 17:34:48;;;;;;;53.57;22.83;;;;;2.30;95891.00;;;;8363920;28;20301;-67
2023/12/08 17:38:53;;;;;;;48.47;21.43;;;;;2.30;95891.00;;;;8365146;28;20286;-67
2023/12/08 17:42:56;;;;;;;54.50;23.93;;;;;2.30;95888.00;;;;8363839;28;20653;-67
2023/12/08 17:46:59;;;;;;;58.03;23.90;;;;;2.30;95891.00;;;;8364261;28;20229;-67
2023/12/08 17:51:02;;;;;;;55.10;22.87;;;;;2.30;95895.00;;;;8364969;28;20205;-67
2023/12/08 17:55:08;;;;;;;57.20;22.30;;;;;2.30;95900.00;;;;8363661;28;20204;-67
2023/12/08 17:59:11;;;;;;;44.97;19.40;;;;;2.30;95890.00;;;;8363971;28;20285;-67
2023/12/08 18:03:14;;;;;;;53.33;22.43;;;;;2.30;95897.00;;;;8364811;28;20669;-68
2023/12/08 18:07:17;;;;;;;58.03;23.60;;;;;2.30;95904.00;;;;8367941;28;20339;-68
2023/12/08 18:11:22;;;;;;;48.00;21.10;;;;;2.30;95900.00;;;;8370869;28;20235;-67
2023/12/08 18:15:25;;;;;;;64.83;37.73;;;;;2.30;95908.00;;;;8369771;28;20194;-68
2023/12/08 18:19:28;;;;;;;63.17;26.63;;;;;2.30;95913.00;;;;8370022;28;20662;-68
2023/12/08 18:23:31;;;;;;;58.63;25.30;;;;;2.40;95913.00;;;;8388227;28;20607;-68
2023/12/08 18:27:36;;;;;;;97.57;45.40;;;;;2.40;95911.00;;;;8403154;28;20226;-67
2023/12/08 18:31:59;;;;;;;130.50;64.30;;;;;2.40;95917.00;;;;8402997;28;20185;-67
2023/12/08 18:36:02;;;;;;;54.80;22.50;;;;;2.50;95922.00;;;;8403639;28;20206;-68
2023/12/08 18:40:07;;;;;;;56.40;22.83;;;;;2.50;95926.00;;;;8402228;28;20236;-68
2023/12/08 18:44:12;;;;;;;54.07;22.47;;;;;2.50;95922.00;;;;8402497;28;20622;-68
2023/12/08 18:48:15;;;;;;;60.03;24.20;;;;;2.50;95920.00;;;;8403110;28;20699;-68
2023/12/08 18:52:19;;;;;;;60.67;23.77;;;;;2.50;95924.00;;;;8401853;28;20230;-68
2023/12/08 18:56:22;;;;;;;62.00;25.00;;;;;2.50;95927.00;;;;8401457;28;20601;-68
2023/12/08 19:00:27;;;;;;;57.93;23.27;;;;;2.50;95928.00;;;;8401411;28;20195;-68
2023/12/08 19:04:32;;;;;;;60.97;23.37;;;;;2.50;95925.00;;;;8401590;28;20224;-68
2023/12/08 19:08:35;;;;;;;57.90;23.50;;;;;2.50;95922.00;;;;8401202;28;20231;-69
2023/12/08 19:12:38;;;;;;;63.00;23.27;;;;;2.50;95922.00;;;;8402096;28;20232;-69
2023/12/08 19:16:43;;;;;;;57.00;23.30;;;;;2.50;95929.00;;;;8401287;28;20198;-69
2023/12/08 19:20:47;;;;;;;60.57;23.40;;;;;2.50;95931.00;;;;8401359;28;20197;-69
2023/12/08 19:24:51;;;;;;;58.53;22.70;;;;;2.50;95931.00;;;;8401139;28;20227;-69
2023/12/08 19:28:54;;;;;;;62.53;23.40;;;;;2.50;95935.00;;;;8401164;28;20293;-69
2023/12/08 19:32:58;;;;;;;56.57;22.93;;;;;2.50;95938.00;;;;8399732;28;20289;-69
2023/12/08 19:37:02;;;;;;;52.73;20.97;;;;;2.60;95939.00;;;;8400246;28;20238;-70
2023/12/08 19:41:06;;;;;;;51.23;21.80;;;;;2.60;95952.00;;;;8399903;28;20242;-70
2023/12/08 19:45:09;;;;;;;60.37;22.80;;;;;2.60;95947.00;;;;8401531;28;20685;-70
2023/12/08 19:49:17;;;;;;;54.87;22.47;;;;;2.60;95953.00;;;;8400828;28;20508;-70
2023/12/08 19:53:20;;;;;;;53.43;23.13;;;;;2.60;95949.00;;;;8399982;28;20196;-70
2023/12/08 19:57:24;;;;;;;58.60;23.00;;;;;2.60;95946.00;;;;8401037;28;20525;-71
2023/12/08 20:01:27;;;;;;;59.07;22.57;;;;;2.60;95948.00;;;;8399454;28;20419;-71
2023/12/08 20:05:32;;;;;;;55.20;21.10;;;;;2.70;95950.00;;;;8400675;28;20226;-71